FIN7PA ESSA-EFHK
Flight info
| Callsign | FIN7PA |
|---|---|
| Flight time | 0h 39m |
| Altitude | 31000 |
| Route | TOVRI N851 RIKUM DCT RIRIP Y364 LAKUT |
| Aircraft | A319/M-SDE3FGHIRWY/LB1 |
Departure
| Time | 2026-05-05 07:48 |
|---|---|
| Airport | Stockholm-Arlanda Airport (ESSA) |
Arrival
| Time | 2026-05-05 08:27 |
|---|---|
| Airport | Helsinki Vantaa Airport (EFHK) |
| Time | Latitude | Longitude | Altitude | Speed | Heading |
|---|---|---|---|---|---|
| 2026-05-05 07:15 | 59.64431 | 17.92684 | 148 ft | 0 kts | 51° |
| 2026-05-05 07:39 | 59.64424 | 17.92666 | 148 ft | 2 kts | 51° |
| 2026-05-05 07:39 | 59.64414 | 17.92643 | 148 ft | 2 kts | 51° |
| 2026-05-05 07:39 | 59.64405 | 17.92620 | 148 ft | 2 kts | 51° |
| 2026-05-05 07:39 | 59.64395 | 17.92598 | 148 ft | 1 kts | 51° |
| 2026-05-05 07:40 | 59.64389 | 17.92584 | 148 ft | 2 kts | 25° |
| 2026-05-05 07:40 | 59.64374 | 17.92581 | 148 ft | 2 kts | 340° |
| 2026-05-05 07:40 | 59.64367 | 17.92588 | 148 ft | 1 kts | 315° |
| 2026-05-05 07:40 | 59.64363 | 17.92596 | 148 ft | 0 kts | 319° |
| 2026-05-05 07:42 | 59.64364 | 17.92594 | 148 ft | 0 kts | 319° |
| 2026-05-05 07:42 | 59.64368 | 17.92587 | 148 ft | 0 kts | 312° |
| 2026-05-05 07:43 | 59.64372 | 17.92564 | 148 ft | 4 kts | 280° |
| 2026-05-05 07:43 | 59.64358 | 17.92469 | 148 ft | 9 kts | 234° |
| 2026-05-05 07:43 | 59.64332 | 17.92338 | 148 ft | 11 kts | 277° |
| 2026-05-05 07:43 | 59.64370 | 17.92199 | 148 ft | 12 kts | 298° |
| 2026-05-05 07:44 | 59.64410 | 17.92043 | 148 ft | 13 kts | 297° |
| 2026-05-05 07:44 | 59.64484 | 17.91960 | 148 ft | 15 kts | 9° |
| 2026-05-05 07:44 | 59.64602 | 17.92001 | 148 ft | 18 kts | 10° |
| 2026-05-05 07:44 | 59.64739 | 17.92052 | 148 ft | 21 kts | 10° |
| 2026-05-05 07:45 | 59.64885 | 17.92102 | 148 ft | 21 kts | 11° |
| 2026-05-05 07:45 | 59.65036 | 17.92162 | 148 ft | 22 kts | 10° |
| 2026-05-05 07:45 | 59.65189 | 17.92215 | 148 ft | 22 kts | 8° |
| 2026-05-05 07:45 | 59.65344 | 17.92269 | 148 ft | 22 kts | 11° |
| 2026-05-05 07:46 | 59.65496 | 17.92333 | 148 ft | 22 kts | 10° |
| 2026-05-05 07:46 | 59.65651 | 17.92383 | 148 ft | 22 kts | 9° |
| 2026-05-05 07:46 | 59.65793 | 17.92435 | 148 ft | 18 kts | 11° |
| 2026-05-05 07:46 | 59.65895 | 17.92440 | 148 ft | 12 kts | 320° |
| 2026-05-05 07:47 | 59.65919 | 17.92285 | 148 ft | 12 kts | 277° |
| 2026-05-05 07:47 | 59.65929 | 17.92128 | 148 ft | 7 kts | 253° |
| 2026-05-05 07:47 | 59.65916 | 17.92113 | 148 ft | 1 kts | 185° |
| 2026-05-05 07:47 | 59.65689 | 17.92030 | 148 ft | 73 kts | 191° |
| 2026-05-05 07:48 | 59.64940 | 17.91762 | 148 ft | 143 kts | 190° |
| 2026-05-05 07:48 | 59.63843 | 17.91417 | 526 ft | 167 kts | 192° |
| 2026-05-05 07:48 | 59.62705 | 17.91033 | 1312 ft | 169 kts | 194° |
| 2026-05-05 07:48 | 59.61566 | 17.90715 | 2140 ft | 171 kts | 189° |
| 2026-05-05 07:49 | 59.60319 | 17.90576 | 2747 ft | 187 kts | 188° |
| 2026-05-05 07:49 | 59.58985 | 17.90415 | 3335 ft | 204 kts | 187° |
| 2026-05-05 07:49 | 59.57512 | 17.90284 | 3897 ft | 225 kts | 180° |
| 2026-05-05 07:49 | 59.55964 | 17.91356 | 4466 ft | 252 kts | 142° |
| 2026-05-05 07:50 | 59.54975 | 17.94251 | 5154 ft | 269 kts | 104° |
| 2026-05-05 07:50 | 59.54994 | 17.97960 | 5862 ft | 278 kts | 68° |
| 2026-05-05 07:50 | 59.55934 | 18.01260 | 6706 ft | 281 kts | 51° |
| 2026-05-05 07:50 | 59.57067 | 18.04422 | 7542 ft | 290 kts | 52° |
| 2026-05-05 07:51 | 59.58170 | 18.07773 | 8377 ft | 299 kts | 55° |
| 2026-05-05 07:51 | 59.59214 | 18.11337 | 9216 ft | 306 kts | 58° |
| 2026-05-05 07:51 | 59.60212 | 18.15053 | 10040 ft | 314 kts | 59° |
| 2026-05-05 07:51 | 59.61219 | 18.19008 | 10614 ft | 330 kts | 60° |
| 2026-05-05 07:52 | 59.62246 | 18.23165 | 11119 ft | 347 kts | 61° |
| 2026-05-05 07:52 | 59.63293 | 18.27481 | 11808 ft | 356 kts | 62° |
| 2026-05-05 07:52 | 59.64367 | 18.31953 | 12534 ft | 364 kts | 62° |
| 2026-05-05 07:52 | 59.65458 | 18.36512 | 13202 ft | 372 kts | 62° |
| 2026-05-05 07:53 | 59.66562 | 18.41143 | 13856 ft | 380 kts | 61° |
| 2026-05-05 07:53 | 59.67693 | 18.45878 | 14488 ft | 388 kts | 62° |
| 2026-05-05 07:53 | 59.68864 | 18.50791 | 15088 ft | 398 kts | 62° |
| 2026-05-05 07:53 | 59.70042 | 18.55755 | 15726 ft | 405 kts | 62° |
| 2026-05-05 07:54 | 59.71227 | 18.60763 | 16409 ft | 410 kts | 62° |
| 2026-05-05 07:54 | 59.72449 | 18.65947 | 17065 ft | 415 kts | 63° |
| 2026-05-05 07:54 | 59.73668 | 18.71115 | 17663 ft | 421 kts | 63° |
| 2026-05-05 07:54 | 59.75001 | 18.76331 | 18285 ft | 425 kts | 58° |
| 2026-05-05 07:55 | 59.76522 | 18.81286 | 18905 ft | 427 kts | 53° |
| 2026-05-05 07:55 | 59.78202 | 18.86185 | 19546 ft | 430 kts | 52° |
| 2026-05-05 07:55 | 59.79904 | 18.91008 | 20182 ft | 433 kts | 51° |
| 2026-05-05 07:55 | 59.81627 | 18.95885 | 20768 ft | 437 kts | 51° |
| 2026-05-05 07:56 | 59.83358 | 19.00831 | 21358 ft | 440 kts | 52° |
| 2026-05-05 07:56 | 59.85117 | 19.05892 | 21957 ft | 444 kts | 52° |
| 2026-05-05 07:56 | 59.86854 | 19.10918 | 22501 ft | 447 kts | 52° |
| 2026-05-05 07:56 | 59.88619 | 19.16044 | 23036 ft | 451 kts | 52° |
| 2026-05-05 07:57 | 59.90371 | 19.21161 | 23565 ft | 455 kts | 52° |
| 2026-05-05 07:57 | 59.92165 | 19.26395 | 24084 ft | 458 kts | 52° |
| 2026-05-05 07:57 | 59.93956 | 19.31641 | 24610 ft | 461 kts | 52° |
| 2026-05-05 07:57 | 59.95739 | 19.36987 | 25107 ft | 466 kts | 56° |
| 2026-05-05 07:58 | 59.97198 | 19.42706 | 25590 ft | 471 kts | 66° |
| 2026-05-05 07:58 | 59.98218 | 19.48869 | 26212 ft | 470 kts | 75° |
| 2026-05-05 07:58 | 59.98991 | 19.55140 | 26877 ft | 468 kts | 77° |
| 2026-05-05 07:58 | 59.99709 | 19.61470 | 27516 ft | 467 kts | 77° |
| 2026-05-05 07:59 | 60.00423 | 19.67771 | 28080 ft | 467 kts | 78° |
| 2026-05-05 07:59 | 60.01153 | 19.74133 | 28632 ft | 467 kts | 78° |
| 2026-05-05 07:59 | 60.01885 | 19.80391 | 29181 ft | 466 kts | 77° |
| 2026-05-05 07:59 | 60.02623 | 19.86654 | 29660 ft | 467 kts | 78° |
| 2026-05-05 08:00 | 60.03372 | 19.92981 | 30073 ft | 470 kts | 77° |
| 2026-05-05 08:00 | 60.04124 | 19.99316 | 30471 ft | 473 kts | 78° |
| 2026-05-05 08:00 | 60.04882 | 20.05763 | 30726 ft | 476 kts | 77° |
| 2026-05-05 08:00 | 60.05636 | 20.12203 | 30740 ft | 477 kts | 78° |
| 2026-05-05 08:01 | 60.07131 | 20.25046 | 30746 ft | 477 kts | 77° |
| 2026-05-05 08:01 | 60.08617 | 20.37972 | 30750 ft | 477 kts | 78° |
| 2026-05-05 08:02 | 60.09921 | 20.50942 | 30537 ft | 477 kts | 79° |
| 2026-05-05 08:02 | 60.10556 | 20.57401 | 30255 ft | 473 kts | 79° |
| 2026-05-05 08:02 | 60.11208 | 20.63820 | 29995 ft | 471 kts | 78° |
| 2026-05-05 08:03 | 60.11904 | 20.70200 | 29729 ft | 469 kts | 79° |
| 2026-05-05 08:03 | 60.12615 | 20.76568 | 29465 ft | 467 kts | 78° |
| 2026-05-05 08:03 | 60.13313 | 20.82859 | 29204 ft | 466 kts | 78° |
| 2026-05-05 08:03 | 60.14005 | 20.89189 | 28940 ft | 465 kts | 79° |
| 2026-05-05 08:04 | 60.14686 | 20.95501 | 28754 ft | 466 kts | 79° |
| 2026-05-05 08:04 | 60.15365 | 21.01847 | 28736 ft | 467 kts | 79° |
| 2026-05-05 08:04 | 60.16047 | 21.08244 | 28582 ft | 466 kts | 79° |
| 2026-05-05 08:04 | 60.16715 | 21.14580 | 27790 ft | 473 kts | 79° |
| 2026-05-05 08:05 | 60.17398 | 21.21104 | 26674 ft | 485 kts | 79° |
| 2026-05-05 08:05 | 60.18089 | 21.27739 | 25718 ft | 492 kts | 79° |
| 2026-05-05 08:05 | 60.18781 | 21.34407 | 24987 ft | 492 kts | 79° |
| 2026-05-05 08:05 | 60.19477 | 21.41147 | 24451 ft | 487 kts | 79° |
| 2026-05-05 08:06 | 60.20153 | 21.47713 | 23949 ft | 483 kts | 79° |
| 2026-05-05 08:06 | 60.20826 | 21.54279 | 23423 ft | 478 kts | 79° |
| 2026-05-05 08:06 | 60.21490 | 21.60814 | 22900 ft | 474 kts | 78° |
| 2026-05-05 08:06 | 60.22137 | 21.67202 | 22391 ft | 471 kts | 80° |
| 2026-05-05 08:07 | 60.22781 | 21.73603 | 21850 ft | 467 kts | 80° |
| 2026-05-05 08:07 | 60.23418 | 21.80004 | 21337 ft | 463 kts | 80° |
| 2026-05-05 08:07 | 60.24043 | 21.86292 | 20823 ft | 460 kts | 80° |
| 2026-05-05 08:07 | 60.24665 | 21.92594 | 20310 ft | 457 kts | 80° |
| 2026-05-05 08:08 | 60.25281 | 21.98838 | 19818 ft | 453 kts | 80° |
| 2026-05-05 08:08 | 60.25894 | 22.05090 | 19327 ft | 449 kts | 80° |
| 2026-05-05 08:08 | 60.26492 | 22.11206 | 18842 ft | 446 kts | 80° |
| 2026-05-05 08:08 | 60.27080 | 22.17280 | 18349 ft | 443 kts | 80° |
| 2026-05-05 08:09 | 60.27670 | 22.23402 | 17814 ft | 442 kts | 80° |
| 2026-05-05 08:09 | 60.28248 | 22.29431 | 17376 ft | 438 kts | 79° |
| 2026-05-05 08:09 | 60.28818 | 22.35384 | 16975 ft | 433 kts | 79° |
| 2026-05-05 08:09 | 60.29385 | 22.41360 | 16602 ft | 427 kts | 80° |
| 2026-05-05 08:10 | 60.29937 | 22.47177 | 16227 ft | 423 kts | 79° |
| 2026-05-05 08:10 | 60.30487 | 22.53001 | 15872 ft | 418 kts | 80° |
| 2026-05-05 08:10 | 60.31025 | 22.58752 | 15516 ft | 414 kts | 80° |
| 2026-05-05 08:10 | 60.31549 | 22.64371 | 15175 ft | 409 kts | 80° |
| 2026-05-05 08:11 | 60.32073 | 22.70018 | 14838 ft | 405 kts | 81° |
| 2026-05-05 08:11 | 60.32585 | 22.75587 | 14491 ft | 400 kts | 81° |
| 2026-05-05 08:11 | 60.33086 | 22.81054 | 14156 ft | 396 kts | 81° |
| 2026-05-05 08:11 | 60.33582 | 22.86487 | 13829 ft | 393 kts | 81° |
| 2026-05-05 08:12 | 60.34070 | 22.91868 | 13485 ft | 389 kts | 80° |
| 2026-05-05 08:12 | 60.34560 | 22.97278 | 13108 ft | 386 kts | 81° |
| 2026-05-05 08:12 | 60.35036 | 23.02553 | 12771 ft | 383 kts | 80° |
| 2026-05-05 08:12 | 60.35506 | 23.07784 | 12415 ft | 380 kts | 81° |
| 2026-05-05 08:13 | 60.35972 | 23.12992 | 11981 ft | 378 kts | 81° |
| 2026-05-05 08:13 | 60.36433 | 23.18174 | 11527 ft | 377 kts | 81° |
| 2026-05-05 08:13 | 60.36896 | 23.23412 | 11088 ft | 374 kts | 81° |
| 2026-05-05 08:13 | 60.37347 | 23.28535 | 10713 ft | 369 kts | 81° |
| 2026-05-05 08:14 | 60.37793 | 23.33623 | 10349 ft | 365 kts | 80° |
| 2026-05-05 08:14 | 60.38225 | 23.38580 | 10009 ft | 359 kts | 80° |
| 2026-05-05 08:14 | 60.38656 | 23.43531 | 9728 ft | 351 kts | 80° |
| 2026-05-05 08:14 | 60.39065 | 23.48266 | 9682 ft | 336 kts | 80° |
| 2026-05-05 08:15 | 60.39458 | 23.52829 | 9538 ft | 326 kts | 80° |
| 2026-05-05 08:15 | 60.39841 | 23.57295 | 9218 ft | 323 kts | 80° |
| 2026-05-05 08:15 | 60.40218 | 23.61727 | 8911 ft | 319 kts | 80° |
| 2026-05-05 08:15 | 60.40595 | 23.66153 | 8619 ft | 315 kts | 81° |
| 2026-05-05 08:16 | 60.40959 | 23.70455 | 8318 ft | 312 kts | 81° |
| 2026-05-05 08:16 | 60.41319 | 23.74749 | 8034 ft | 308 kts | 81° |
| 2026-05-05 08:16 | 60.41675 | 23.78995 | 7743 ft | 305 kts | 81° |
| 2026-05-05 08:16 | 60.42028 | 23.83225 | 7462 ft | 302 kts | 81° |
| 2026-05-05 08:17 | 60.42371 | 23.87369 | 7170 ft | 299 kts | 81° |
| 2026-05-05 08:17 | 60.42714 | 23.91499 | 6887 ft | 296 kts | 80° |
| 2026-05-05 08:17 | 60.43051 | 23.95571 | 6609 ft | 294 kts | 80° |
| 2026-05-05 08:17 | 60.43385 | 23.99622 | 6320 ft | 291 kts | 80° |
| 2026-05-05 08:18 | 60.43715 | 24.03635 | 6039 ft | 290 kts | 80° |
| 2026-05-05 08:18 | 60.44038 | 24.07599 | 5764 ft | 287 kts | 80° |
| 2026-05-05 08:18 | 60.44364 | 24.11611 | 5482 ft | 285 kts | 80° |
| 2026-05-05 08:18 | 60.44681 | 24.15508 | 5206 ft | 283 kts | 80° |
| 2026-05-05 08:19 | 60.45000 | 24.19466 | 4929 ft | 282 kts | 80° |
| 2026-05-05 08:19 | 60.45310 | 24.23332 | 4654 ft | 280 kts | 80° |
| 2026-05-05 08:19 | 60.45619 | 24.27185 | 4379 ft | 278 kts | 79° |
| 2026-05-05 08:19 | 60.45928 | 24.31078 | 4093 ft | 276 kts | 79° |
| 2026-05-05 08:20 | 60.46232 | 24.34904 | 3813 ft | 275 kts | 79° |
| 2026-05-05 08:20 | 60.46531 | 24.38678 | 3536 ft | 273 kts | 79° |
| 2026-05-05 08:20 | 60.46834 | 24.42499 | 3259 ft | 272 kts | 79° |
| 2026-05-05 08:20 | 60.47039 | 24.46264 | 2979 ft | 271 kts | 86° |
| 2026-05-05 08:21 | 60.47012 | 24.50113 | 2934 ft | 274 kts | 93° |
| 2026-05-05 08:21 | 60.46874 | 24.53839 | 2942 ft | 258 kts | 95° |
| 2026-05-05 08:21 | 60.46720 | 24.57395 | 2943 ft | 244 kts | 95° |
| 2026-05-05 08:21 | 60.46577 | 24.60722 | 2938 ft | 235 kts | 95° |
| 2026-05-05 08:22 | 60.46437 | 24.64038 | 2917 ft | 236 kts | 95° |
| 2026-05-05 08:22 | 60.46302 | 24.67340 | 2863 ft | 236 kts | 96° |
| 2026-05-05 08:22 | 60.46171 | 24.70610 | 2824 ft | 227 kts | 96° |
| 2026-05-05 08:22 | 60.46046 | 24.73729 | 2710 ft | 219 kts | 96° |
| 2026-05-05 08:23 | 60.45922 | 24.76763 | 2599 ft | 216 kts | 95° |
| 2026-05-05 08:23 | 60.45799 | 24.79790 | 2450 ft | 216 kts | 96° |
| 2026-05-05 08:23 | 60.45532 | 24.82752 | 2202 ft | 212 kts | 120° |
| 2026-05-05 08:23 | 60.44637 | 24.84867 | 2055 ft | 185 kts | 154° |
| 2026-05-05 08:24 | 60.43573 | 24.85981 | 2013 ft | 168 kts | 165° |
| 2026-05-05 08:24 | 60.42472 | 24.86921 | 2016 ft | 173 kts | 165° |
| 2026-05-05 08:24 | 60.41372 | 24.87945 | 2001 ft | 175 kts | 162° |
| 2026-05-05 08:24 | 60.40279 | 24.89043 | 1816 ft | 175 kts | 161° |
| 2026-05-05 08:25 | 60.39213 | 24.90146 | 1567 ft | 168 kts | 161° |
| 2026-05-05 08:25 | 60.38203 | 24.91187 | 1338 ft | 161 kts | 161° |
| 2026-05-05 08:25 | 60.37216 | 24.92192 | 1136 ft | 155 kts | 161° |
| 2026-05-05 08:25 | 60.36296 | 24.93132 | 912 ft | 142 kts | 160° |
| 2026-05-05 08:26 | 60.35435 | 24.94008 | 727 ft | 138 kts | 161° |
| 2026-05-05 08:26 | 60.34581 | 24.94876 | 554 ft | 137 kts | 160° |
| 2026-05-05 08:26 | 60.33740 | 24.95738 | 368 ft | 135 kts | 160° |
| 2026-05-05 08:26 | 60.32901 | 24.96588 | 211 ft | 134 kts | 160° |
| 2026-05-05 08:27 | 60.32127 | 24.97349 | 188 ft | 106 kts | 154° |
| 2026-05-05 08:27 | 60.31626 | 24.97881 | 188 ft | 56 kts | 153° |
| 2026-05-05 08:27 | 60.31444 | 24.97999 | 188 ft | 13 kts | 241° |
| 2026-05-05 08:27 | 60.31411 | 24.97840 | 188 ft | 11 kts | 252° |
| 2026-05-05 08:28 | 60.31456 | 24.97733 | 188 ft | 11 kts | 332° |
| 2026-05-05 08:28 | 60.31530 | 24.97652 | 188 ft | 12 kts | 331° |
| 2026-05-05 08:28 | 60.31612 | 24.97568 | 188 ft | 13 kts | 333° |
| 2026-05-05 08:28 | 60.31696 | 24.97481 | 188 ft | 14 kts | 333° |
| 2026-05-05 08:29 | 60.31787 | 24.97388 | 188 ft | 15 kts | 333° |
| 2026-05-05 08:29 | 60.31883 | 24.97288 | 188 ft | 16 kts | 332° |
| 2026-05-05 08:29 | 60.31985 | 24.97182 | 188 ft | 16 kts | 332° |
| 2026-05-05 08:30 | 60.32182 | 24.96977 | 188 ft | 11 kts | 332° |
| 2026-05-05 08:30 | 60.32240 | 24.96887 | 188 ft | 10 kts | 277° |
| 2026-05-05 08:30 | 60.32201 | 24.96755 | 188 ft | 11 kts | 231° |
| 2026-05-05 08:30 | 60.32158 | 24.96660 | 188 ft | 8 kts | 227° |
| 2026-05-05 08:31 | 60.32116 | 24.96567 | 188 ft | 9 kts | 228° |
| 2026-05-05 08:31 | 60.32073 | 24.96468 | 188 ft | 9 kts | 228° |
| 2026-05-05 08:31 | 60.32029 | 24.96394 | 188 ft | 6 kts | 179° |
| 2026-05-05 08:31 | 60.31996 | 24.96447 | 188 ft | 6 kts | 136° |
| 2026-05-05 08:32 | 60.31979 | 24.96479 | 188 ft | 0 kts | 137° |
| 2026-05-05 08:32 | 60.31978 | 24.96481 | 188 ft | 0 kts | 137° |